Time;durP1;ratioP1;P1;durP2;ratioP2;P2;SDS_P1;SDS_P2;PMS_P1;PMS_P2;Temp;Humidity;BMP_temperature;BMP_pressure;BME280_temperature;BME280_humidity;BME280_pressure;Samples;Min_cycle;Max_cycle;Signal;HPM_P1;HPM_P2
2022/06/16 00:01:01;;;;;;;3.17;1.42;;;;;;;23.13;43.10;101776.53;5072568;28;20037;-67
2022/06/16 00:03:27;;;;;;;2.92;1.42;;;;;;;23.12;43.23;101769.50;5072991;28;20066;-67
2022/06/16 00:05:52;;;;;;;2.70;1.50;;;;;;;23.12;42.89;101771.34;5073191;28;20021;-67
2022/06/16 00:08:18;;;;;;;3.38;1.63;;;;;;;23.11;43.10;101767.81;5072373;28;20024;-67
2022/06/16 00:13:38;;;;;;;3.95;1.55;;;;;;;23.10;42.83;101766.16;5072427;28;20031;-67
2022/06/16 00:16:05;;;;;;;3.92;1.70;;;;;;;23.11;43.11;101774.97;5072272;28;20369;-67
2022/06/16 00:18:31;;;;;;;4.00;1.60;;;;;;;23.11;42.91;101775.78;5072965;28;20028;-67
2022/06/16 00:20:56;;;;;;;3.15;1.63;;;;;;;23.10;42.78;101771.47;5072436;28;20025;-66
2022/06/16 00:23:21;;;;;;;3.35;1.50;;;;;;;23.10;42.86;101779.44;5072841;28;20016;-67
2022/06/16 00:25:47;;;;;;;3.03;1.55;;;;;;;23.09;43.19;101783.06;5073110;28;20021;-67
2022/06/16 00:28:12;;;;;;;3.10;1.60;;;;;;;23.09;43.20;101780.41;5072105;28;20040;-67
2022/06/16 00:30:38;;;;;;;3.88;1.42;;;;;;;23.09;42.92;101779.59;5072600;28;20131;-67
2022/06/16 00:33:03;;;;;;;3.90;1.80;;;;;;;23.08;43.07;101781.41;5073099;28;20020;-67
2022/06/16 00:35:52;;;;;;;3.30;1.50;;;;;;;23.08;42.87;101778.75;5071835;28;20555;-67
2022/06/16 00:38:17;;;;;;;4.53;1.70;;;;;;;23.07;43.06;101779.69;5064202;28;20043;-67
2022/06/16 00:40:42;;;;;;;4.07;1.70;;;;;;;23.08;43.13;101780.56;5072663;28;20104;-67
2022/06/16 00:43:09;;;;;;;2.43;1.40;;;;;;;23.06;42.69;101785.97;5071865;28;20050;-67
2022/06/16 00:45:56;;;;;;;3.45;1.50;;;;;;;23.06;43.14;101785.13;5072901;28;20269;-67
2022/06/16 00:48:34;;;;;;;3.88;1.38;;;;;;;23.06;42.88;101787.81;5072638;28;20036;-67
2022/06/16 00:51:13;;;;;;;3.03;1.67;;;;;;;23.04;42.88;101782.63;5072021;28;20101;-67
2022/06/16 00:53:40;;;;;;;4.50;1.88;;;;;;;23.04;43.20;101785.28;5072717;28;20029;-67
2022/06/16 00:56:09;;;;;;;3.88;1.73;;;;;;;23.05;42.76;101791.41;5071891;28;20464;-67
2022/06/16 00:58:40;;;;;;;3.35;1.60;;;;;;;23.04;42.86;101795.06;5072475;28;20419;-67
2022/06/16 01:01:07;;;;;;;2.92;1.63;;;;;;;23.03;43.04;101794.22;5072660;28;20082;-67
2022/06/16 01:06:19;;;;;;;;;;;;;;;23.01;42.75;101802.31;5072643;28;20082;-67
2022/06/16 01:08:46;;;;;;;4.10;1.80;;;;;;;23.01;42.95;101801.50;5072605;28;19919;-67
2022/06/16 01:13:41;;;;;;;3.30;1.70;;;;;;;23.02;43.09;101808.50;5071573;28;20033;-67
2022/06/16 01:14:17;;;;;;;3.70;1.70;;;;;;;23.00;42.98;101807.78;5072391;28;20036;-67
2022/06/16 01:16:47;;;;;;;5.68;1.70;;;;;;;23.00;42.85;101799.78;5072234;28;20067;-67
2022/06/16 01:19:50;;;;;;;3.90;1.67;;;;;;;22.99;42.98;101811.44;5072350;28;20017;-67
2022/06/16 01:22:38;;;;;;;2.97;1.48;;;;;;;22.98;42.97;101807.91;5072115;28;20032;-67
2022/06/16 01:25:22;;;;;;;4.18;1.80;;;;;;;22.98;42.82;101807.06;5033912;28;20063;-68
2022/06/16 01:28:06;;;;;;;5.00;1.70;;;;;;;22.96;42.84;101815.19;5072144;28;20052;-67
2022/06/16 01:30:37;;;;;;;3.53;1.65;;;;;;;22.96;43.03;101814.34;5071984;28;20036;-67
2022/06/16 01:33:28;;;;;;;4.07;1.67;;;;;;;22.96;42.91;101825.81;5071486;28;20031;-67
2022/06/16 01:36:15;;;;;;;3.05;1.50;;;;;;;22.96;42.96;101828.47;5043366;28;20033;-67
2022/06/16 01:38:52;;;;;;;4.95;1.60;;;;;;;22.94;42.62;101830.44;5071546;28;20071;-68
2022/06/16 01:41:30;;;;;;;3.58;1.63;;;;;;;22.95;42.72;101831.25;5070766;28;20408;-68
2022/06/16 01:44:06;;;;;;;2.53;1.42;;;;;;;22.93;42.76;101818.09;5072346;28;20017;-67
2022/06/16 01:46:34;;;;;;;3.58;1.60;;;;;;;22.93;43.04;101819.94;5071213;28;20056;-67
2022/06/16 01:49:13;;;;;;;3.33;1.63;;;;;;;22.92;43.05;101824.41;5072216;28;20024;-67
2022/06/16 01:51:56;;;;;;;3.63;1.70;;;;;;;22.91;42.80;101825.38;5072785;28;20370;-67
2022/06/16 01:54:26;;;;;;;3.70;1.63;;;;;;;22.92;42.53;101826.22;5072657;28;20075;-67
2022/06/16 01:57:22;;;;;;;5.50;1.70;;;;;;;22.91;42.84;101827.19;5072696;28;20069;-67
2022/06/16 02:00:06;;;;;;;3.08;1.52;;;;;;;22.90;42.76;101823.69;5071678;28;20029;-67
2022/06/16 02:02:39;;;;;;;4.13;1.52;;;;;;;22.89;42.81;101824.69;5074710;28;20082;-67
2022/06/16 02:05:25;;;;;;;4.43;1.63;;;;;;;22.90;42.65;101836.13;5075674;28;20422;-67
2022/06/16 02:08:01;;;;;;;3.20;1.52;;;;;;;22.89;42.51;101826.47;5074948;28;20154;-68
2022/06/16 02:10:41;;;;;;;3.40;1.80;;;;;;;22.87;42.89;101829.25;5072161;28;20123;-67
2022/06/16 02:13:12;;;;;;;4.25;1.85;;;;;;;22.88;42.85;101819.50;5074878;28;20025;-67
2022/06/16 02:15:53;;;;;;;3.20;1.70;;;;;;;22.87;42.62;101815.97;5075666;28;20067;-67
2022/06/16 02:18:22;;;;;;;3.75;1.70;;;;;;;22.86;42.93;101824.94;5075131;28;20437;-67
2022/06/16 02:20:52;;;;;;;4.72;1.67;;;;;;;22.86;42.53;101824.94;5074322;28;20029;-68
2022/06/16 02:23:19;;;;;;;4.20;1.67;;;;;;;22.85;42.81;101825.91;5074864;28;20016;-68
2022/06/16 02:25:47;;;;;;;3.33;1.77;;;;;;;22.85;42.53;101820.59;5075267;28;20543;-67
2022/06/16 02:28:13;;;;;;;4.85;1.70;;;;;;;22.85;42.67;101819.75;5073924;28;20048;-67
2022/06/16 02:30:49;;;;;;;4.30;1.67;;;;;;;22.83;42.75;101825.19;5075198;28;20078;-67
2022/06/16 02:33:54;;;;;;;3.42;1.60;;;;;;;22.82;42.73;101836.78;5074896;28;20095;-67
2022/06/16 02:36:48;;;;;;;3.72;1.70;;;;;;;22.82;42.68;101842.94;5073274;28;20383;-67
2022/06/16 02:39:33;;;;;;;3.00;1.55;;;;;;;22.82;42.65;101864.19;5074757;28;20036;-67
2022/06/16 02:42:11;;;;;;;5.05;1.90;;;;;;;22.82;42.60;101868.69;5074134;28;20028;-67
2022/06/16 02:44:54;;;;;;;4.35;1.92;;;;;;;22.79;42.76;101871.59;5074844;28;20387;-67
2022/06/16 02:47:54;;;;;;;3.15;1.67;;;;;;;22.78;42.88;101869.91;5074672;28;20040;-68
2022/06/16 02:50:42;;;;;;;3.55;1.63;;;;;;;22.78;42.64;101877.88;5073535;28;20064;-67
2022/06/16 02:53:24;;;;;;;3.10;1.77;;;;;;;22.76;42.51;101878.00;5073840;28;20036;-67
2022/06/16 02:55:55;;;;;;;3.55;1.75;;;;;;;22.76;42.76;101878.00;5074068;28;20032;-67
2022/06/16 02:58:21;;;;;;;3.75;1.50;;;;;;;22.76;42.65;101871.88;5074368;28;20535;-67
2022/06/16 03:00:55;;;;;;;3.42;1.65;;;;;;;22.74;42.57;101872.00;5074630;28;20082;-67
2022/06/16 03:03:38;;;;;;;3.78;1.63;;;;;;;22.75;42.62;101878.16;5073641;28;20020;-67
2022/06/16 03:06:04;;;;;;;3.10;1.60;;;;;;;22.74;42.27;101879.97;5074489;28;20476;-67
2022/06/16 03:08:34;;;;;;;4.07;1.70;;;;;;;22.74;42.62;101879.97;5074167;28;20028;-67
2022/06/16 03:11:01;;;;;;;3.83;1.80;;;;;;;22.73;42.43;101877.44;5073513;28;20028;-68
2022/06/16 03:13:32;;;;;;;3.20;1.50;;;;;;;22.72;42.68;101881.09;5073323;28;20082;-67
2022/06/16 03:16:00;;;;;;;2.63;1.42;;;;;;;22.72;42.42;101876.59;5074468;28;20024;-67
2022/06/16 03:18:26;;;;;;;3.22;1.70;;;;;;;22.69;42.26;101874.22;5073366;28;20048;-67
2022/06/16 03:20:52;;;;;;;4.38;1.83;;;;;;;22.70;42.52;101872.38;5074165;28;20044;-67
2022/06/16 03:23:19;;;;;;;4.47;1.85;;;;;;;22.70;42.33;101872.38;5073358;28;20029;-67
2022/06/16 03:25:44;;;;;;;3.40;1.63;;;;;;;22.69;42.40;101878.69;5074072;28;20028;-67
2022/06/16 03:28:11;;;;;;;5.80;1.65;;;;;;;22.68;42.33;101877.00;5073578;28;20588;-67
2022/06/16 03:30:38;;;;;;;3.45;1.88;;;;;;;22.68;42.36;101879.66;5073057;28;20369;-67
2022/06/16 03:33:07;;;;;;;4.85;1.67;;;;;;;22.68;42.24;101867.19;5073982;28;20314;-67
2022/06/16 03:35:32;;;;;;;4.35;1.80;;;;;;;22.67;42.22;101870.84;5073489;28;20456;-67
2022/06/16 03:38:02;;;;;;;4.75;1.77;;;;;;;22.66;42.40;101874.47;5073006;28;20039;-67
2022/06/16 03:40:28;;;;;;;6.10;2.00;;;;;;;22.66;42.56;101879.78;5073495;28;20031;-67
2022/06/16 03:42:53;;;;;;;4.50;2.22;;;;;;;22.65;42.24;101888.72;5073818;28;20016;-67
2022/06/16 03:45:18;;;;;;;2.63;1.48;;;;;;;22.64;42.29;101893.19;5072765;28;20048;-67
2022/06/16 03:47:44;;;;;;;3.67;1.77;;;;;;;22.64;42.19;101892.34;5073681;28;20056;-67
2022/06/16 03:50:14;;;;;;;3.63;1.60;;;;;;;22.63;42.30;101896.81;5073327;28;20698;-67
2022/06/16 03:52:39;;;;;;;4.10;2.00;;;;;;;22.63;42.21;101903.94;5072784;28;20027;-67
2022/06/16 03:55:05;;;;;;;5.35;2.10;;;;;;;22.62;42.19;101910.22;5073438;28;20032;-67
2022/06/16 03:57:31;;;;;;;3.90;2.08;;;;;;;22.62;42.04;101915.53;5071873;28;20037;-67
2022/06/16 03:59:56;;;;;;;3.70;1.90;;;;;;;22.61;42.03;101914.69;5072873;28;20028;-67
2022/06/16 04:02:21;;;;;;;4.40;2.00;;;;;;;22.61;42.40;101913.88;5073174;28;20349;-67
2022/06/16 04:04:47;;;;;;;3.05;1.70;;;;;;;22.60;42.07;101925.44;5073214;28;20304;-67
2022/06/16 04:07:12;;;;;;;3.73;1.80;;;;;;;22.59;42.28;101921.13;5072178;28;20032;-67
2022/06/16 04:09:37;;;;;;;3.22;1.48;;;;;;;22.59;42.21;101919.31;5073128;28;20844;-67
2022/06/16 04:12:03;;;;;;;4.97;1.88;;;;;;;22.60;42.39;101925.44;5073353;28;20048;-67
2022/06/16 04:14:32;;;;;;;5.22;1.90;;;;;;;22.59;42.29;101923.78;5072110;28;20539;-67
2022/06/16 04:16:58;;;;;;;3.97;1.92;;;;;;;22.59;42.02;101929.09;5072959;28;20487;-67
2022/06/16 04:19:24;;;;;;;4.03;2.10;;;;;;;22.58;42.03;101925.59;5072719;28;20059;-67
2022/06/16 04:21:52;;;;;;;3.65;1.80;;;;;;;22.57;42.08;101926.56;5072190;28;20464;-67
2022/06/16 04:24:18;;;;;;;3.90;1.85;;;;;;;22.58;42.09;101925.59;5072374;28;20032;-67
2022/06/16 04:26:48;;;;;;;3.72;1.75;;;;;;;22.57;42.28;101934.53;5072032;28;20086;-67
2022/06/16 04:29:13;;;;;;;4.32;1.95;;;;;;;22.57;41.96;101933.69;5072472;28;20044;-67
2022/06/16 04:31:39;;;;;;;4.50;1.60;;;;;;;22.56;42.25;101930.19;5072692;28;20024;-67
2022/06/16 04:34:06;;;;;;;3.63;1.63;;;;;;;22.57;42.22;101936.34;5071951;28;20472;-67
2022/06/16 04:36:31;;;;;;;4.38;1.90;;;;;;;22.56;42.15;101940.81;5072255;28;20029;-67
2022/06/16 04:38:58;;;;;;;4.30;1.80;;;;;;;22.56;42.13;101942.63;5072654;28;20043;-67
2022/06/16 04:41:23;;;;;;;3.75;1.90;;;;;;;22.56;42.15;101954.09;5071491;28;20415;-67
2022/06/16 04:43:49;;;;;;;3.55;1.80;;;;;;;22.56;41.87;101953.25;5072732;28;20032;-67
2022/06/16 04:46:16;;;;;;;4.90;2.05;;;;;;;22.55;41.77;101955.06;5072312;28;20021;-67
2022/06/16 04:48:43;;;;;;;3.97;1.90;;;;;;;22.55;41.92;101965.69;5071787;28;20020;-67
2022/06/16 04:51:10;;;;;;;3.95;1.92;;;;;;;22.55;42.14;101968.34;5072016;28;20032;-67
2022/06/16 04:53:35;;;;;;;5.03;1.70;;;;;;;22.55;42.01;101964.84;5071307;28;20106;-67
2022/06/16 04:56:02;;;;;;;4.80;1.92;;;;;;;22.55;42.34;101964.84;5071541;28;20460;-67
2022/06/16 04:58:28;;;;;;;4.60;2.00;;;;;;;22.55;41.98;101964.84;5072087;28;20063;-68
2022/06/16 05:00:54;;;;;;;7.03;1.90;;;;;;;22.54;42.07;101964.00;5072628;28;20031;-67
2022/06/16 05:03:21;;;;;;;4.03;1.80;;;;;;;22.54;41.98;101971.97;5071426;28;20025;-67
2022/06/16 05:05:51;;;;;;;4.07;1.65;;;;;;;22.54;42.01;101963.16;5072218;28;20499;-67
2022/06/16 05:08:18;;;;;;;5.78;1.88;;;;;;;22.53;42.08;101978.25;5072212;28;20167;-67
2022/06/16 05:10:46;;;;;;;5.47;1.98;;;;;;;22.55;42.00;101978.97;5071722;28;20024;-67
2022/06/16 05:13:15;;;;;;;4.43;2.00;;;;;;;22.53;42.09;101978.25;5071971;28;20388;-67
2022/06/16 05:15:41;;;;;;;4.40;1.95;;;;;;;22.55;42.16;101986.09;5072150;28;20020;-67
2022/06/16 05:18:07;;;;;;;5.32;1.70;;;;;;;22.54;42.10;101990.59;5071536;28;20031;-68
2022/06/16 05:20:33;;;;;;;4.72;1.80;;;;;;;22.54;42.15;101995.91;5072434;28;20020;-67
2022/06/16 05:22:58;;;;;;;4.55;1.77;;;;;;;22.54;42.25;101995.91;5071655;28;20456;-67
2022/06/16 05:25:25;;;;;;;3.97;1.85;;;;;;;22.54;42.33;101998.56;5071968;28;20028;-67
2022/06/16 05:27:51;;;;;;;6.10;1.80;;;;;;;22.54;42.15;102000.34;5072010;28;20571;-67
2022/06/16 05:30:17;;;;;;;4.03;1.60;;;;;;;22.54;41.94;101998.56;5071010;28;20060;-68
2022/06/16 05:32:42;;;;;;;4.05;1.63;;;;;;;22.54;42.03;102003.88;5072165;28;20059;-68
2022/06/16 05:35:11;;;;;;;3.83;1.75;;;;;;;22.53;42.18;102002.16;5072136;28;20434;-67
2022/06/16 05:37:39;;;;;;;4.50;1.90;;;;;;;22.54;42.33;102008.31;5074952;28;20020;-67
2022/06/16 05:40:05;;;;;;;3.97;1.52;;;;;;;22.54;42.05;102009.19;5076127;28;20029;-67
2022/06/16 05:42:31;;;;;;;3.85;1.67;;;;;;;22.56;42.21;102019.69;5075714;28;20059;-66
2022/06/16 05:44:56;;;;;;;7.07;1.92;;;;;;;22.54;42.29;102022.47;5075226;28;20028;-65
2022/06/16 05:47:21;;;;;;;6.70;2.10;;;;;;;22.56;42.27;102025.81;5075599;28;20032;-67
2022/06/16 05:49:47;;;;;;;5.10;1.67;;;;;;;22.55;42.00;102029.44;5075895;28;20761;-66
2022/06/16 05:52:18;;;;;;;3.85;1.85;;;;;;;22.56;42.28;102030.31;5074946;28;20021;-67
2022/06/16 05:54:45;;;;;;;4.88;1.98;;;;;;;22.56;41.76;102032.97;5075902;28;20070;-67
2022/06/16 05:57:11;;;;;;;4.32;2.08;;;;;;;22.56;41.94;102031.13;5075489;28;20430;-66
2022/06/16 05:59:37;;;;;;;7.40;2.08;;;;;;;22.56;41.88;102025.81;5074876;28;20574;-67
2022/06/16 06:02:05;;;;;;;3.85;1.83;;;;;;;22.57;41.64;102031.97;5075513;28;20383;-68
2022/06/16 06:04:32;;;;;;;4.50;2.00;;;;;;;22.55;41.74;102034.75;5075178;28;20024;-67
2022/06/16 06:06:58;;;;;;;4.43;1.95;;;;;;;22.57;41.57;102045.25;5074915;28;20467;-67
2022/06/16 06:18:09;;;;;;;2.58;1.55;;;;;;;22.56;41.50;102039.09;5013598;28;20040;-67
2022/06/16 06:20:35;;;;;;;4.22;2.00;;;;;;;22.57;41.51;102045.25;5012837;28;20038;-66
2022/06/16 06:23:00;;;;;;;3.55;1.98;;;;;;;22.56;41.50;102052.38;5043749;28;20430;-66
2022/06/16 06:25:26;;;;;;;3.10;1.40;;;;;;;22.56;41.77;102041.75;5075039;28;20016;-66
2022/06/16 06:27:51;;;;;;;2.88;1.30;;;;;;;22.57;41.76;102045.25;5074389;28;20047;-67
2022/06/16 06:30:29;;;;;;;4.43;1.63;;;;;;;22.56;41.78;102041.75;5074943;28;20039;-67
2022/06/16 06:32:59;;;;;;;5.90;1.40;;;;;;;22.57;41.74;102051.44;5075082;28;20543;-66
2022/06/16 06:35:25;;;;;;;3.42;1.50;;;;;;;22.57;41.71;102050.56;5074451;28;20025;-67
2022/06/16 06:37:51;;;;;;;3.60;1.50;;;;;;;22.58;41.66;102055.75;5075235;28;20170;-66
2022/06/16 06:40:26;;;;;;;4.03;1.45;;;;;;;22.58;41.69;102054.94;5073946;28;20114;-66
2022/06/16 06:42:52;;;;;;;3.25;1.50;;;;;;;22.58;41.54;102063.72;5075081;28;20021;-66
2022/06/16 06:45:20;;;;;;;4.50;1.50;;;;;;;22.59;41.48;102051.31;5074766;28;20031;-66
2022/06/16 06:47:49;;;;;;;4.57;1.88;;;;;;;22.58;41.33;102050.44;5073952;28;20031;-67
2022/06/16 06:50:29;;;;;;;3.85;1.88;;;;;;;22.59;41.59;102059.28;5074432;28;20028;-67
2022/06/16 06:52:54;;;;;;;3.75;1.50;;;;;;;22.59;41.42;102048.66;5074791;28;20032;-67
2022/06/16 06:55:21;;;;;;;5.05;1.60;;;;;;;22.60;41.31;102058.28;5073891;28;20020;-66
2022/06/16 06:57:49;;;;;;;3.78;1.60;;;;;;;22.60;41.01;102056.47;5074565;28;20528;-67
2022/06/16 07:00:18;;;;;;;3.80;1.63;;;;;;;22.60;41.33;102063.59;5074428;28;20402;-67
2022/06/16 07:02:43;;;;;;;3.15;1.55;;;;;;;22.61;41.07;102070.63;5073792;28;20028;-68
2022/06/16 07:05:09;;;;;;;5.28;1.60;;;;;;;22.60;41.23;102074.22;5074531;28;20094;-67
2022/06/16 07:07:36;;;;;;;4.20;1.60;;;;;;;22.61;41.06;102076.75;5074665;28;20426;-67
2022/06/16 07:10:04;;;;;;;2.92;1.40;;;;;;;22.61;41.22;102082.06;5074026;28;20452;-66
2022/06/16 07:12:30;;;;;;;3.83;1.75;;;;;;;22.61;41.21;102084.72;5074285;28;20025;-66
2022/06/16 07:14:55;;;;;;;5.75;1.73;;;;;;;22.62;41.23;102093.53;5074341;28;20100;-67
2022/06/16 07:17:23;;;;;;;3.27;1.37;;;;;;;22.62;41.27;102096.19;5073321;28;20024;-67
2022/06/16 07:19:49;;;;;;;4.25;1.38;;;;;;;22.63;41.34;102105.88;5074419;28;20376;-67
2022/06/16 07:22:15;;;;;;;3.72;1.40;;;;;;;22.63;41.44;102108.53;5073828;28;20486;-67
2022/06/16 07:24:42;;;;;;;4.28;1.40;;;;;;;22.62;41.06;102104.16;5073523;28;20029;-67
2022/06/16 07:27:08;;;;;;;3.33;1.40;;;;;;;22.62;41.04;102110.34;5074040;28;20131;-67
2022/06/16 07:29:37;;;;;;;3.17;1.30;;;;;;;22.63;41.32;102109.34;5073136;28;20016;-67
2022/06/16 07:32:03;;;;;;;6.32;1.63;;;;;;;22.64;40.99;102112.88;5072578;28;20016;-66
2022/06/16 07:34:29;;;;;;;4.00;1.40;;;;;;;22.64;41.17;102121.69;5073546;28;20036;-67
2022/06/16 07:36:54;;;;;;;3.60;1.40;;;;;;;22.64;41.14;102129.66;5072985;28;20024;-67
2022/06/16 07:39:20;;;;;;;3.22;1.35;;;;;;;22.66;40.86;102136.66;5071259;28;20033;-67
2022/06/16 07:41:48;;;;;;;3.00;1.38;;;;;;;22.64;40.95;102134.97;5073755;28;20037;-67
2022/06/16 07:44:16;;;;;;;3.03;1.40;;;;;;;22.65;41.00;102133.16;5072049;28;20082;-67
2022/06/16 07:46:43;;;;;;;4.32;1.52;;;;;;;22.67;40.86;102138.34;5073346;28;20020;-67
2022/06/16 07:49:21;;;;;;;3.47;1.40;;;;;;;22.66;41.00;102137.50;5073187;28;20021;-67
2022/06/16 07:51:51;;;;;;;4.63;1.38;;;;;;;22.67;41.25;102139.19;5073048;28;20029;-67
2022/06/16 07:54:17;;;;;;;3.13;1.20;;;;;;;22.68;40.83;102138.22;5073458;28;20111;-68
2022/06/16 07:56:43;;;;;;;3.28;1.30;;;;;;;22.69;41.06;102139.09;5073548;28;20490;-67
2022/06/16 07:59:09;;;;;;;3.13;1.33;;;;;;;22.69;40.98;102141.75;5072202;28;20025;-67
2022/06/16 08:01:34;;;;;;;3.97;1.50;;;;;;;22.69;40.94;102141.75;5073744;28;20487;-67
2022/06/16 08:04:05;;;;;;;3.10;1.42;;;;;;;22.68;41.08;102145.34;5073514;28;20265;-66
2022/06/16 08:06:35;;;;;;;5.53;1.52;;;;;;;22.68;41.12;102143.53;5072414;28;20025;-66
2022/06/16 08:09:01;;;;;;;3.10;1.30;;;;;;;22.69;40.99;102163.84;5073427;28;20020;-67
2022/06/16 08:14:10;;;;;;;2.92;1.23;;;;;;;22.70;40.84;102167.31;5073133;28;20097;-66
2022/06/16 08:16:36;;;;;;;2.97;1.20;;;;;;;22.69;40.64;102168.31;5073537;28;20480;-66
2022/06/16 08:19:03;;;;;;;3.38;1.30;;;;;;;22.70;40.82;102168.19;5072550;28;20063;-67
2022/06/16 08:21:28;;;;;;;3.03;1.40;;;;;;;22.71;40.85;102161.06;5072835;28;20036;-67
2022/06/16 08:23:54;;;;;;;2.95;1.25;;;;;;;22.70;40.73;102162.00;5073047;28;20032;-67
2022/06/16 08:26:20;;;;;;;3.80;1.63;;;;;;;22.71;40.91;102161.88;5072086;28;20025;-66
2022/06/16 08:28:46;;;;;;;3.10;1.40;;;;;;;22.70;40.91;102149.59;5073257;28;20024;-67
2022/06/16 08:31:12;;;;;;;2.70;1.30;;;;;;;22.71;40.71;102145.94;5072810;28;20028;-67
2022/06/16 08:33:39;;;;;;;4.60;1.40;;;;;;;22.71;40.96;102143.28;5072221;28;20031;-67
2022/06/16 08:36:04;;;;;;;2.88;1.13;;;;;;;22.71;41.09;102143.28;5072896;28;20103;-67
2022/06/16 08:38:30;;;;;;;2.53;1.20;;;;;;;22.71;40.96;102143.28;5072565;28;20111;-67
2022/06/16 08:41:13;;;;;;;4.18;1.40;;;;;;;22.72;40.77;102154.78;5072462;28;20036;-67
2022/06/16 08:43:56;;;;;;;4.13;1.27;;;;;;;22.73;41.07;102153.78;5073105;28;20036;-66
2022/06/16 08:46:27;;;;;;;4.25;1.20;;;;;;;22.73;40.64;102151.13;5072632;28;20025;-66
2022/06/16 08:49:02;;;;;;;3.63;1.30;;;;;;;22.72;41.00;102150.31;5071998;28;20052;-67
2022/06/16 08:51:33;;;;;;;5.10;1.45;;;;;;;22.73;41.09;102149.34;5072280;28;20934;-66
2022/06/16 08:54:05;;;;;;;3.22;1.50;;;;;;;22.74;40.88;102163.47;5071948;28;20024;-66
2022/06/16 08:56:43;;;;;;;3.35;1.40;;;;;;;22.74;41.01;102166.13;5072329;28;20051;-67
2022/06/16 08:59:17;;;;;;;4.88;1.40;;;;;;;22.75;40.80;102181.09;5072271;28;20055;-65
2022/06/16 09:01:55;;;;;;;;;;;;;;;22.73;41.08;102178.56;5072345;28;20024;-65
2022/06/16 09:04:31;;;;;;;3.53;1.38;;;;;;;22.74;41.20;102180.25;5072245;28;19919;-66
2022/06/16 09:07:25;;;;;;;3.28;1.30;;;;;;;22.75;41.04;102181.09;5072749;28;20473;-66
2022/06/16 09:10:15;;;;;;;3.50;1.38;;;;;;;22.74;40.81;102190.03;5071958;28;20119;-67
2022/06/16 09:12:45;;;;;;;3.20;1.40;;;;;;;22.74;41.28;102188.22;5076439;28;20423;-67
2022/06/16 09:15:33;;;;;;;3.08;1.27;;;;;;;22.74;41.00;102182.06;5075447;28;20029;-67
2022/06/16 09:18:21;;;;;;;3.22;1.10;;;;;;;22.73;41.03;102186.53;5076713;28;20043;-67
2022/06/16 09:21:19;;;;;;;4.47;1.52;;;;;;;22.74;41.03;102192.69;5076744;28;20109;-67
2022/06/16 09:23:56;;;;;;;3.72;1.60;;;;;;;22.73;41.11;102194.53;5075752;28;20052;-67
2022/06/16 09:26:32;;;;;;;3.33;1.35;;;;;;;22.74;40.80;102192.69;5075919;28;20376;-67
2022/06/16 09:29:11;;;;;;;4.03;1.30;;;;;;;22.73;41.02;102191.88;5076727;28;20071;-67
2022/06/16 09:31:42;;;;;;;3.03;1.35;;;;;;;22.74;41.12;102201.50;5076437;28;20026;-67
2022/06/16 09:34:21;;;;;;;3.70;1.30;;;;;;;22.74;41.21;102192.69;5076533;28;20024;-67
2022/06/16 09:36:53;;;;;;;3.35;1.30;;;;;;;22.75;41.07;102186.44;5075525;28;20031;-66
2022/06/16 09:39:31;;;;;;;3.35;1.42;;;;;;;22.75;41.15;102189.91;5076138;28;20020;-67
2022/06/16 09:45:19;;;;;;;2.92;1.23;;;;;;;22.75;40.94;102197.88;5075602;28;20086;-66
2022/06/16 09:48:09;;;;;;;3.50;1.38;;;;;;;22.75;41.18;102195.22;5076022;28;20353;-66
2022/06/16 09:50:59;;;;;;;3.30;1.40;;;;;;;22.75;41.20;102195.22;5075346;28;20036;-66
2022/06/16 09:53:50;;;;;;;5.88;1.20;;;;;;;22.76;40.94;102196.06;5075640;28;20028;-67
2022/06/16 09:56:37;;;;;;;2.90;1.20;;;;;;;22.76;40.88;102193.41;5075677;28;20453;-69
2022/06/16 09:59:08;;;;;;;4.18;1.20;;;;;;;22.76;40.89;102190.75;5075248;28;20032;-68
2022/06/16 10:01:57;;;;;;;3.83;1.35;;;;;;;22.77;40.91;102198.59;5075872;28;20099;-69
2022/06/16 10:04:22;;;;;;;3.38;1.40;;;;;;;22.77;41.02;102195.09;5075162;28;20426;-68
2022/06/16 10:06:53;;;;;;;3.25;1.50;;;;;;;22.77;41.06;102190.63;5075830;28;20024;-67
2022/06/16 10:09:31;;;;;;;3.72;1.33;;;;;;;22.77;40.96;102201.25;5075531;28;20029;-67
2022/06/16 10:11:57;;;;;;;5.57;1.80;;;;;;;22.78;41.00;102192.34;5074919;28;20027;-68
2022/06/16 10:14:44;;;;;;;3.87;1.60;;;;;;;22.78;40.72;102189.69;5075305;28;20372;-67
2022/06/16 10:17:12;;;;;;;3.88;1.35;;;;;;;22.79;40.98;102187.84;5075585;28;20391;-67
2022/06/16 10:19:41;;;;;;;3.22;1.40;;;;;;;22.79;40.88;102199.31;5074867;28;20020;-67
2022/06/16 10:22:07;;;;;;;4.50;1.30;;;;;;;22.79;41.06;102199.31;5075202;28;20026;-68
2022/06/16 10:24:44;;;;;;;3.35;1.48;;;;;;;22.81;40.87;102202.72;5075650;28;20024;-67
2022/06/16 10:27:13;;;;;;;4.30;1.45;;;;;;;22.80;40.73;102203.69;5074845;28;20041;-67
2022/06/16 10:29:50;;;;;;;3.58;1.40;;;;;;;22.82;41.18;102204.38;5076066;28;20078;-68
2022/06/16 10:32:16;;;;;;;4.95;1.40;;;;;;;22.83;41.11;102213.22;5075063;28;20023;-68
2022/06/16 10:34:42;;;;;;;4.43;1.30;;;;;;;22.84;41.17;102222.88;5074444;28;20032;-68
2022/06/16 10:37:16;;;;;;;5.35;1.40;;;;;;;22.84;41.20;102217.56;5075075;28;20024;-68
2022/06/16 10:39:57;;;;;;;3.47;1.27;;;;;;;22.86;41.30;102217.44;5074464;28;20036;-67
2022/06/16 10:42:29;;;;;;;4.82;1.50;;;;;;;22.85;41.09;102211.28;5074558;28;20365;-67
2022/06/16 10:45:07;;;;;;;2.95;1.30;;;;;;;22.87;41.07;102213.81;5075027;28;20052;-67
2022/06/16 10:47:53;;;;;;;5.47;1.40;;;;;;;22.86;41.06;102207.66;5074026;28;20038;-67
2022/06/16 10:50:23;;;;;;;4.82;1.50;;;;;;;22.86;41.01;102210.31;5074755;28;20149;-67
2022/06/16 10:52:57;;;;;;;4.22;1.70;;;;;;;22.87;40.78;102208.50;5075048;28;20025;-67
2022/06/16 10:55:25;;;;;;;2.92;1.27;;;;;;;22.87;40.94;102211.16;5073745;28;20031;-67
2022/06/16 10:58:15;;;;;;;4.53;1.55;;;;;;;22.87;41.08;102206.69;5074748;28;20495;-67
2022/06/16 11:00:40;;;;;;;2.60;1.35;;;;;;;22.87;40.89;102198.69;5074140;28;20024;-68
2022/06/16 11:03:15;;;;;;;3.80;1.42;;;;;;;22.88;40.82;102202.22;5074643;28;20020;-68
2022/06/16 11:05:54;;;;;;;4.20;1.40;;;;;;;22.88;40.68;102202.22;5074761;28;20100;-67
2022/06/16 11:08:21;;;;;;;5.90;1.60;;;;;;;22.88;40.90;102208.38;5073505;28;20431;-67
2022/06/16 11:10:56;;;;;;;4.32;1.40;;;;;;;22.88;40.42;102204.88;5074659;28;20024;-67
2022/06/16 11:13:35;;;;;;;3.65;1.50;;;;;;;22.89;40.79;102198.59;5074381;28;20036;-67
2022/06/16 11:16:06;;;;;;;3.22;1.40;;;;;;;22.88;40.79;102195.09;5073799;28;20101;-67
2022/06/16 11:18:33;;;;;;;3.60;1.50;;;;;;;22.89;40.77;102199.44;5074059;28;20473;-69
2022/06/16 11:21:00;;;;;;;2.88;1.52;;;;;;;22.90;40.72;102190.47;5074293;28;20040;-69
2022/06/16 11:23:32;;;;;;;3.50;1.40;;;;;;;22.90;40.75;102194.97;5073406;28;20051;-69
2022/06/16 11:26:00;;;;;;;3.42;1.30;;;;;;;22.91;40.68;102186.03;5074301;28;20380;-67
2022/06/16 11:28:27;;;;;;;4.18;1.50;;;;;;;22.92;40.79;102190.38;5073614;28;20056;-67
2022/06/16 11:30:57;;;;;;;6.30;1.42;;;;;;;22.92;40.80;102177.06;5073211;28;20036;-67
2022/06/16 11:36:23;;;;;;;6.57;1.40;;;;;;;22.92;40.99;102179.72;5073500;28;20085;-67
2022/06/16 11:39:10;;;;;;;3.42;1.50;;;;;;;22.94;40.90;102183.09;5074207;28;20031;-67
2022/06/16 11:41:36;;;;;;;4.30;1.55;;;;;;;22.93;41.20;102182.25;5073795;28;20028;-67
2022/06/16 11:44:11;;;;;;;3.25;1.50;;;;;;;22.93;40.73;102176.94;5073262;28;20037;-67
2022/06/16 11:47:18;;;;;;;3.05;1.38;;;;;;;22.96;41.09;102183.84;5073798;28;20078;-67
2022/06/16 11:50:00;;;;;;;3.25;1.23;;;;;;;22.95;40.92;102182.13;5045731;28;20052;-67
2022/06/16 11:52:38;;;;;;;4.68;1.40;;;;;;;22.95;40.70;102182.13;5073603;28;20109;-67
2022/06/16 11:55:44;;;;;;;3.28;1.33;;;;;;;22.97;41.01;102185.50;5073766;28;20033;-67
2022/06/16 11:58:38;;;;;;;3.55;1.48;;;;;;;22.97;40.87;102183.72;5072525;28;20046;-67
2022/06/16 12:01:15;;;;;;;3.35;1.20;;;;;;;22.98;40.98;102192.53;5073850;28;20035;-67
2022/06/16 12:04:24;;;;;;;6.13;1.40;;;;;;;22.98;40.88;102204.00;5073644;28;20033;-69
2022/06/16 12:06:59;;;;;;;3.25;1.23;;;;;;;22.98;40.78;102196.03;5073691;28;20035;-69
2022/06/16 12:09:57;;;;;;;3.95;1.50;;;;;;;22.99;40.94;102199.53;5073273;28;20081;-68
2022/06/16 12:12:41;;;;;;;4.03;1.55;;;;;;;22.99;40.96;102195.06;5072456;28;20031;-68